Dublin, Virginia
Current Conditions -  °F | °C
As of 1:15 AM on Monday 22 Dec 2014 (Local Time) from KPSK Reporting Station
Overcast Overcast  
Wind Chill: 31°   Ceiling: 1800
Heat Index: 38°   Visibility: 10mi
Dew Point: 33°   Wind: 9mph
Humidity: 84%   Direction: 120°ESE
Pressure: 30.18"   Gusts: NA
Location:  37.11°N, 80.69°W
Report Text: KPSK 220615Z AUTO 12008KT 10SM OVC018 03/01 A3018 RMK AO2 T00330008
Loading
Personal Weather Stations






























Interactive Weather Map New forecast layout! Learn more

10-Day Weather Forecast

Advertisements
Track Severe Weather on mobile